createdAt,value
2022-10-21T00:01:06.198Z,17.13
2022-10-21T00:03:34.461Z,17.11
2022-10-21T00:06:04.841Z,17.02
2022-10-21T00:08:33.209Z,17.01
2022-10-21T00:11:03.342Z,17.09
2022-10-21T00:13:32.783Z,17.19
2022-10-21T00:16:02.930Z,17.19
2022-10-21T00:18:31.770Z,17.16
2022-10-21T00:21:00.373Z,17.19
2022-10-21T00:23:30.046Z,17.22
2022-10-21T00:25:58.786Z,17.13
2022-10-21T00:28:27.110Z,17.14
2022-10-21T00:30:57.938Z,17.04
2022-10-21T00:33:28.240Z,17.13
2022-10-21T00:36:01.553Z,17.13
2022-10-21T00:38:31.825Z,17.13
2022-10-21T00:41:00.306Z,17.14
2022-10-21T00:43:29.504Z,17.11
2022-10-21T00:46:01.507Z,17.13
2022-10-21T00:48:34.254Z,17.09
2022-10-21T00:51:06.861Z,17.06
2022-10-21T00:53:39.651Z,17.06
2022-10-21T00:56:15.608Z,17.06
2022-10-21T00:58:47.817Z,17.07
2022-10-21T01:01:19.391Z,17.06
2022-10-21T01:03:50.488Z,17.05
2022-10-21T01:06:21.877Z,17.06
2022-10-21T01:08:53.203Z,17.03
2022-10-21T01:11:23.576Z,16.99
2022-10-21T01:14:16.259Z,16.95
2022-10-21T01:16:51.783Z,17.01
2022-10-21T01:19:49.297Z,17.01
2022-10-21T01:22:29.187Z,17.03
2022-10-21T01:25:25.048Z,17.03
2022-10-21T01:28:02.015Z,17.06
2022-10-21T01:30:42.733Z,17.04
2022-10-21T01:33:39.453Z,17.03
2022-10-21T01:36:27.263Z,17.06
2022-10-21T01:39:04.194Z,17.10
2022-10-21T01:41:39.363Z,17.11
2022-10-21T01:44:14.589Z,17.14
2022-10-21T01:46:49.540Z,17.14
2022-10-21T01:49:24.738Z,17.15
2022-10-21T01:51:54.413Z,17.13
2022-10-21T01:54:27.881Z,17.13
2022-10-21T01:56:58.513Z,17.16
2022-10-21T01:59:30.001Z,17.15
2022-10-21T02:02:01.953Z,17.16
2022-10-21T02:04:31.874Z,17.17
2022-10-21T02:06:59.929Z,17.18
2022-10-21T02:09:28.086Z,17.20
2022-10-21T02:12:00.541Z,17.21
2022-10-21T02:14:33.450Z,17.20
2022-10-21T02:17:03.233Z,17.19
2022-10-21T02:22:02.617Z,17.18
2022-10-21T02:24:37.942Z,17.15
2022-10-21T02:27:06.526Z,17.15
2022-10-21T02:29:37.963Z,17.16
2022-10-21T02:32:21.005Z,17.16
2022-10-21T02:35:01.311Z,17.19
2022-10-21T02:37:34.140Z,17.19
2022-10-21T02:40:07.793Z,17.16
2022-10-21T02:42:40.790Z,17.15
2022-10-21T02:45:11.199Z,17.31
2022-10-21T02:47:41.417Z,17.33
2022-10-21T02:50:09.962Z,17.37
2022-10-21T02:52:37.970Z,17.35
2022-10-21T02:55:06.761Z,17.34
2022-10-21T02:57:34.865Z,17.39
2022-10-21T03:00:02.886Z,17.36
2022-10-21T03:02:30.882Z,17.44
2022-10-21T03:05:00.313Z,17.43
2022-10-21T03:07:28.354Z,17.41
2022-10-21T03:09:56.345Z,17.35
2022-10-21T03:12:24.313Z,17.38
2022-10-21T03:14:52.361Z,17.47
2022-10-21T03:17:22.856Z,17.51
2022-10-21T03:19:53.243Z,17.56
2022-10-21T03:22:22.593Z,17.60
2022-10-21T03:24:50.630Z,17.64
2022-10-21T03:27:18.828Z,17.72
2022-10-21T03:29:46.845Z,17.74
2022-10-21T03:32:14.830Z,17.80
2022-10-21T03:34:42.860Z,17.83
2022-10-21T03:37:10.841Z,17.90
2022-10-21T03:39:40.182Z,17.90
2022-10-21T03:42:08.227Z,17.88
2022-10-21T03:44:36.284Z,17.87
2022-10-21T03:47:04.281Z,17.89
2022-10-21T03:49:32.431Z,17.84
2022-10-21T03:52:00.514Z,17.88
2022-10-21T03:54:28.619Z,17.90
2022-10-21T03:56:58.038Z,17.95
2022-10-21T03:59:26.096Z,17.97
2022-10-21T04:01:54.158Z,17.97
2022-10-21T04:04:22.250Z,18.04
2022-10-21T04:06:50.361Z,18.06
2022-10-21T04:09:18.475Z,18.10
2022-10-21T04:11:46.562Z,18.11
2022-10-21T04:14:15.953Z,18.12
2022-10-21T04:16:44.078Z,18.09
2022-10-21T04:19:17.428Z,18.08
2022-10-21T04:21:45.550Z,18.05
2022-10-21T04:24:13.776Z,18.10
2022-10-21T04:26:42.594Z,18.11
2022-10-21T04:29:10.615Z,18.09
2022-10-21T04:31:39.974Z,18.02
2022-10-21T04:34:08.033Z,17.98
2022-10-21T04:36:36.018Z,17.97
2022-10-21T04:39:04.770Z,17.93
2022-10-21T04:41:32.780Z,17.88
2022-10-21T04:44:00.781Z,17.84
2022-10-21T04:46:28.791Z,17.82
2022-10-21T04:48:58.150Z,17.87
2022-10-21T04:51:26.246Z,17.92
2022-10-21T04:53:54.298Z,18.00
2022-10-21T04:56:22.322Z,17.98
2022-10-21T04:58:50.322Z,18.02
2022-10-21T05:01:18.438Z,18.05
2022-10-21T05:03:46.527Z,18.09
2022-10-21T05:06:15.927Z,18.14
2022-10-21T05:08:44.008Z,18.20
2022-10-21T05:11:12.086Z,18.24
2022-10-21T05:13:40.081Z,18.24
2022-10-21T05:16:08.598Z,18.27
2022-10-21T05:18:36.552Z,18.27
2022-10-21T05:21:04.794Z,18.30
2022-10-21T05:23:34.354Z,18.35
2022-10-21T05:26:02.348Z,18.38
2022-10-21T05:28:30.433Z,18.40
2022-10-21T05:30:58.426Z,18.40
2022-10-21T05:33:26.418Z,18.39
2022-10-21T05:35:58.788Z,18.34
2022-10-21T05:38:26.837Z,18.30
2022-10-21T05:40:56.671Z,18.35
2022-10-21T05:43:25.155Z,18.37
2022-10-21T05:45:53.109Z,18.40
2022-10-21T05:48:21.200Z,18.42
2022-10-21T05:50:52.774Z,18.47
2022-10-21T05:53:20.903Z,18.48
2022-10-21T05:55:58.183Z,18.48
2022-10-21T05:58:26.891Z,18.46
2022-10-21T06:00:55.477Z,18.46
2022-10-21T06:03:24.013Z,18.46
2022-10-21T06:05:52.041Z,18.42
2022-10-21T06:08:20.081Z,18.39
2022-10-21T06:10:48.054Z,18.34
2022-10-21T06:13:17.449Z,18.32
2022-10-21T06:15:48.745Z,18.27
2022-10-21T06:18:18.329Z,18.26
2022-10-21T06:20:46.304Z,18.26
2022-10-21T06:23:16.248Z,18.29
2022-10-21T06:25:44.565Z,18.27
2022-10-21T06:28:12.574Z,18.25
2022-10-21T06:30:41.972Z,18.24
2022-10-21T06:33:09.940Z,18.22
2022-10-21T06:35:37.990Z,18.26
2022-10-21T06:38:05.965Z,18.26
2022-10-21T06:40:34.033Z,18.26
2022-10-21T06:43:02.177Z,18.25
2022-10-21T06:45:30.210Z,18.26
2022-10-21T06:47:59.736Z,18.28
2022-10-21T06:50:27.854Z,18.29
2022-10-21T06:52:56.126Z,18.35
2022-10-21T06:55:24.162Z,18.38
2022-10-21T06:57:52.190Z,18.42
2022-10-21T07:00:20.301Z,18.42
2022-10-21T07:02:48.366Z,18.40
2022-10-21T07:05:17.959Z,18.40
2022-10-21T07:07:46.077Z,18.37
2022-10-21T07:10:14.333Z,18.36
2022-10-21T07:12:42.337Z,18.39
2022-10-21T07:15:11.090Z,18.42
2022-10-21T07:17:39.370Z,18.49
2022-10-21T07:20:08.389Z,18.70
2022-10-21T07:22:37.751Z,18.95
2022-10-21T07:25:06.502Z,19.44
2022-10-21T07:27:34.604Z,20.05
2022-10-21T07:30:02.678Z,20.54
2022-10-21T07:32:30.811Z,20.80
2022-10-21T07:34:58.859Z,21.03
2022-10-21T07:37:26.841Z,21.05
2022-10-21T07:39:56.462Z,20.88
2022-10-21T07:42:24.664Z,20.54
2022-10-21T07:44:57.336Z,20.28
2022-10-21T07:47:25.779Z,20.15
2022-10-21T07:49:54.301Z,20.07
2022-10-21T07:52:22.605Z,20.18
2022-10-21T07:54:50.953Z,20.35
2022-10-21T07:57:20.669Z,20.41
2022-10-21T07:59:48.989Z,20.34
2022-10-21T08:02:17.313Z,20.16
2022-10-21T08:04:45.729Z,20.15
2022-10-21T08:07:14.100Z,20.11
2022-10-21T08:09:42.431Z,20.17
2022-10-21T08:12:14.390Z,20.33
2022-10-21T08:14:45.232Z,20.57
2022-10-21T08:17:13.579Z,20.64
2022-10-21T08:19:41.888Z,20.64
2022-10-21T08:22:10.679Z,20.64
2022-10-21T08:24:42.367Z,20.74
2022-10-21T08:27:10.796Z,20.91
2022-10-21T08:29:40.085Z,20.87
2022-10-21T08:32:10.188Z,20.76
2022-10-21T08:34:38.466Z,20.62
2022-10-21T08:37:06.817Z,20.56
2022-10-21T08:39:35.583Z,20.63
2022-10-21T08:42:09.012Z,20.96
2022-10-21T08:44:49.293Z,21.36
2022-10-21T08:47:25.100Z,21.74
2022-10-21T08:49:59.500Z,22.03
2022-10-21T08:52:38.094Z,22.31
2022-10-21T08:55:09.363Z,22.61
2022-10-21T08:57:38.110Z,22.94
2022-10-21T09:00:15.920Z,23.29
2022-10-21T09:03:06.074Z,23.79
2022-10-21T09:06:08.616Z,23.67
2022-10-21T09:08:43.408Z,23.36
2022-10-21T09:11:25.445Z,23.18
2022-10-21T09:14:23.465Z,22.84
2022-10-21T09:16:59.901Z,22.76
2022-10-21T09:19:41.693Z,22.75
2022-10-21T09:22:36.211Z,22.97
2022-10-21T09:25:19.093Z,23.24
2022-10-21T09:28:03.337Z,23.01
2022-10-21T09:30:31.974Z,22.85
2022-10-21T09:33:01.382Z,22.97
2022-10-21T09:35:37.233Z,23.07
2022-10-21T09:38:09.746Z,23.27
2022-10-21T09:40:38.113Z,23.56
2022-10-21T09:43:12.555Z,23.71
2022-10-21T09:45:42.655Z,23.84
2022-10-21T09:48:24.274Z,23.86
2022-10-21T09:50:57.310Z,23.96
2022-10-21T09:53:30.245Z,23.81
2022-10-21T09:56:03.887Z,23.76
2022-10-21T09:58:49.543Z,23.90
2022-10-21T10:01:20.389Z,24.39
2022-10-21T10:03:50.645Z,25.05
2022-10-21T10:06:35.402Z,25.81
2022-10-21T10:09:10.144Z,26.57
2022-10-21T10:11:50.491Z,27.17
2022-10-21T10:14:31.151Z,27.44
2022-10-21T10:17:19.766Z,27.74
2022-10-21T10:20:13.543Z,28.30
2022-10-21T10:22:44.846Z,28.71
2022-10-21T10:25:22.933Z,28.72
2022-10-21T10:27:53.894Z,28.88
2022-10-21T10:30:23.705Z,28.83
2022-10-21T10:32:53.846Z,28.86
2022-10-21T10:35:30.004Z,28.72
2022-10-21T10:38:02.566Z,28.53
2022-10-21T10:40:38.958Z,28.34
2022-10-21T10:43:14.477Z,28.34
2022-10-21T10:45:49.690Z,28.11
2022-10-21T10:48:25.267Z,27.98
2022-10-21T10:50:53.614Z,27.85
2022-10-21T10:53:32.998Z,27.61
2022-10-21T10:56:14.776Z,27.45
2022-10-21T10:58:47.731Z,27.28
2022-10-21T11:01:26.665Z,27.24
2022-10-21T11:03:58.834Z,27.27
2022-10-21T11:06:36.665Z,27.28
2022-10-21T11:09:09.071Z,27.17
2022-10-21T11:11:40.014Z,27.00
2022-10-21T11:14:17.590Z,26.68
2022-10-21T11:17:06.753Z,26.45
2022-10-21T11:19:53.931Z,26.10
2022-10-21T11:22:30.617Z,25.72
2022-10-21T11:25:05.854Z,25.54
2022-10-21T11:27:55.543Z,25.49
2022-10-21T11:30:29.845Z,25.36
2022-10-21T11:33:06.627Z,25.21
2022-10-21T11:35:45.160Z,25.04
2022-10-21T11:38:30.612Z,24.78
2022-10-21T11:41:06.692Z,24.66
2022-10-21T11:43:44.445Z,24.70
2022-10-21T11:46:18.979Z,24.72
2022-10-21T11:49:08.262Z,24.61
2022-10-21T11:51:47.357Z,24.45
2022-10-21T11:54:32.831Z,24.41
2022-10-21T11:57:07.387Z,24.41
2022-10-21T11:59:54.188Z,24.36
2022-10-21T12:02:33.132Z,24.42
2022-10-21T12:05:07.047Z,24.50
2022-10-21T12:07:51.226Z,24.53
2022-10-21T12:10:32.794Z,24.50
2022-10-21T12:13:07.581Z,24.58
2022-10-21T12:15:41.423Z,24.58
2022-10-21T12:18:16.581Z,24.50
2022-10-21T12:20:48.998Z,24.35
2022-10-21T12:23:21.396Z,24.34
2022-10-21T12:26:06.699Z,24.36
2022-10-21T12:28:40.697Z,24.34
2022-10-21T12:31:24.949Z,24.38
2022-10-21T12:33:54.069Z,24.39
2022-10-21T12:36:45.403Z,24.30
2022-10-21T12:39:19.442Z,24.21
2022-10-21T12:41:48.707Z,24.20
2022-10-21T12:44:30.057Z,24.09
2022-10-21T12:47:03.804Z,24.03
2022-10-21T12:49:34.123Z,24.04
2022-10-21T12:52:10.799Z,23.99
2022-10-21T12:54:44.443Z,24.02
2022-10-21T12:57:25.297Z,24.12
2022-10-21T13:00:15.905Z,24.01
2022-10-21T13:03:03.874Z,23.95
2022-10-21T13:06:03.713Z,23.87
2022-10-21T13:08:40.326Z,23.81
2022-10-21T13:11:23.714Z,23.76
2022-10-21T13:14:25.411Z,23.75
2022-10-21T13:17:14.773Z,23.81
2022-10-21T13:19:43.326Z,23.73
2022-10-21T13:22:18.713Z,23.66
2022-10-21T13:24:47.847Z,23.59
2022-10-21T13:27:31.049Z,23.55
2022-10-21T13:30:00.742Z,23.65
2022-10-21T13:32:32.495Z,23.70
2022-10-21T13:35:27.743Z,23.58
2022-10-21T13:38:00.678Z,23.51
2022-10-21T13:40:33.919Z,23.51
2022-10-21T13:43:06.821Z,23.53
2022-10-21T13:45:37.670Z,23.57
2022-10-21T13:48:14.065Z,23.57
2022-10-21T13:50:44.565Z,23.55
2022-10-21T13:53:29.801Z,23.52
2022-10-21T13:56:00.997Z,23.57
2022-10-21T13:58:31.773Z,23.54
2022-10-21T14:01:09.370Z,23.51
2022-10-21T14:03:39.548Z,23.57
2022-10-21T14:06:09.780Z,23.58
2022-10-21T14:08:42.056Z,23.60
2022-10-21T14:11:17.560Z,23.59
2022-10-21T14:13:47.818Z,23.58
2022-10-21T14:16:21.562Z,23.54
2022-10-21T14:18:51.477Z,23.54
2022-10-21T14:21:22.822Z,23.58
2022-10-21T14:23:51.400Z,23.58
2022-10-21T14:26:20.169Z,23.59
2022-10-21T14:28:50.281Z,23.61
2022-10-21T14:31:19.446Z,23.58
2022-10-21T14:33:49.667Z,23.61
2022-10-21T14:36:23.334Z,23.65
2022-10-21T14:38:58.786Z,23.61
2022-10-21T14:41:29.548Z,23.64
2022-10-21T14:44:05.854Z,23.61
2022-10-21T14:46:42.539Z,23.56
2022-10-21T14:49:22.158Z,23.60
2022-10-21T14:51:57.150Z,23.64
2022-10-21T14:54:29.851Z,23.68
2022-10-21T14:57:00.085Z,23.74
2022-10-21T14:59:35.255Z,23.80
2022-10-21T15:02:04.136Z,23.81
2022-10-21T15:04:51.816Z,23.86
2022-10-21T15:07:29.853Z,23.90
2022-10-21T15:10:18.163Z,23.96
2022-10-21T15:12:47.515Z,23.99
2022-10-21T15:15:48.249Z,23.91
2022-10-21T15:18:23.863Z,23.88
2022-10-21T15:20:54.519Z,23.81
2022-10-21T15:23:27.971Z,23.74
2022-10-21T15:26:00.328Z,23.72
2022-10-21T15:28:31.337Z,23.67
2022-10-21T15:31:00.050Z,23.66
2022-10-21T15:33:28.469Z,23.64
2022-10-21T15:36:04.296Z,23.57
2022-10-21T15:38:33.718Z,23.51
2022-10-21T15:41:01.865Z,23.42
2022-10-21T15:43:29.981Z,23.40
2022-10-21T15:45:58.086Z,23.40
2022-10-21T15:48:26.194Z,23.41
2022-10-21T15:50:57.202Z,23.35
2022-10-21T15:53:25.297Z,23.32
2022-10-21T15:55:55.798Z,23.29
2022-10-21T15:58:26.425Z,23.25
2022-10-21T16:00:54.475Z,23.22
2022-10-21T16:03:22.953Z,23.17
2022-10-21T16:05:51.511Z,23.11
2022-10-21T16:08:19.494Z,23.06
2022-10-21T16:10:49.974Z,23.01
2022-10-21T16:13:19.474Z,22.98
2022-10-21T16:15:47.542Z,22.91
2022-10-21T16:18:16.959Z,22.85
2022-10-21T16:20:46.084Z,22.69
2022-10-21T16:23:14.505Z,22.76
2022-10-21T16:25:42.495Z,22.77
2022-10-21T16:28:13.177Z,22.73
2022-10-21T16:30:42.844Z,22.67
2022-10-21T16:33:11.318Z,22.56
2022-10-21T16:35:39.353Z,22.54
2022-10-21T16:38:07.399Z,22.54
2022-10-21T16:40:36.481Z,22.51
2022-10-21T16:43:04.499Z,22.52
2022-10-21T16:45:33.626Z,22.52
2022-10-21T16:48:06.886Z,22.52
2022-10-21T16:50:39.508Z,22.47
2022-10-21T16:53:08.525Z,22.46
2022-10-21T16:55:36.481Z,22.46
2022-10-21T16:58:04.625Z,22.48
2022-10-21T17:00:32.701Z,22.46
2022-10-21T17:03:02.517Z,22.40
2022-10-21T17:05:30.643Z,22.37
2022-10-21T17:08:00.046Z,22.36
2022-10-21T17:10:28.443Z,22.36
2022-10-21T17:12:59.252Z,22.38
2022-10-21T17:15:28.868Z,22.38
2022-10-21T17:17:56.970Z,22.37
2022-10-21T17:20:30.295Z,22.37
2022-10-21T17:22:58.877Z,22.38
2022-10-21T17:25:27.296Z,22.39
2022-10-21T17:27:55.369Z,22.38
2022-10-21T17:30:23.489Z,22.38
2022-10-21T17:32:51.470Z,22.41
2022-10-21T17:35:19.873Z,22.41
2022-10-21T17:37:50.086Z,22.41
2022-10-21T17:40:20.927Z,22.34
2022-10-21T17:42:49.682Z,22.27
2022-10-21T17:45:19.541Z,22.22
2022-10-21T17:47:47.605Z,22.22
2022-10-21T17:50:18.422Z,22.17
2022-10-21T17:52:46.446Z,22.18
2022-10-21T17:55:15.815Z,22.14
2022-10-21T17:57:43.838Z,22.07
2022-10-21T18:00:12.674Z,22.10
2022-10-21T18:02:41.179Z,22.11
2022-10-21T18:05:10.807Z,22.13
2022-10-21T18:07:39.280Z,22.14
2022-10-21T18:10:09.099Z,22.14
2022-10-21T18:12:38.721Z,22.13
2022-10-21T18:15:07.775Z,22.14
2022-10-21T18:17:37.483Z,22.12
2022-10-21T18:20:07.720Z,22.13
2022-10-21T18:22:36.072Z,22.13
2022-10-21T18:25:04.150Z,22.08
2022-10-21T18:27:32.196Z,22.07
2022-10-21T18:30:01.645Z,22.09
2022-10-21T18:32:29.628Z,22.03
2022-10-21T18:34:57.608Z,22.02
2022-10-21T18:37:28.760Z,22.03
2022-10-21T18:39:58.978Z,22.02
2022-10-21T18:42:27.558Z,22.02
2022-10-21T18:44:55.547Z,22.03
2022-10-21T18:47:24.953Z,21.99
2022-10-21T18:49:53.621Z,22.01
2022-10-21T18:52:21.688Z,21.96
2022-10-21T18:54:49.739Z,21.97
2022-10-21T18:57:17.736Z,21.96
2022-10-21T18:59:45.728Z,21.98
2022-10-21T19:02:20.264Z,21.96
2022-10-21T19:04:52.190Z,21.93
2022-10-21T19:07:20.235Z,21.94
2022-10-21T19:09:48.469Z,21.92
2022-10-21T19:12:21.038Z,21.90
2022-10-21T19:14:51.342Z,21.83
2022-10-21T19:17:20.109Z,21.80
2022-10-21T19:19:50.378Z,21.75
2022-10-21T19:22:18.535Z,21.70
2022-10-21T19:24:46.684Z,21.65
2022-10-21T19:27:15.059Z,21.62
2022-10-21T19:29:43.433Z,21.61
2022-10-21T19:32:13.685Z,21.57
2022-10-21T19:34:41.779Z,21.49
2022-10-21T19:37:12.524Z,21.47
2022-10-21T19:39:40.953Z,21.42
2022-10-21T19:42:08.999Z,21.36
2022-10-21T19:44:37.238Z,21.31
2022-10-21T19:47:05.322Z,21.29
2022-10-21T19:49:33.920Z,21.25
2022-10-21T19:52:03.196Z,21.22
2022-10-21T19:54:32.615Z,21.20
2022-10-21T19:57:00.634Z,21.18
2022-10-21T19:59:28.762Z,21.16
2022-10-21T20:01:56.864Z,21.10
2022-10-21T20:04:24.848Z,21.07
2022-10-21T20:06:52.927Z,21.03
2022-10-21T20:09:21.013Z,21.00
2022-10-21T20:11:50.441Z,20.98
2022-10-21T20:14:18.563Z,20.96
2022-10-21T20:16:49.977Z,20.93
2022-10-21T20:19:18.069Z,20.92
2022-10-21T20:21:46.227Z,20.91
2022-10-21T20:24:16.093Z,20.90
2022-10-21T20:26:45.652Z,20.83
2022-10-21T20:29:15.572Z,20.78
2022-10-21T20:31:43.675Z,20.75
2022-10-21T20:34:13.515Z,20.71
2022-10-21T20:36:41.911Z,20.66
2022-10-21T20:39:10.473Z,20.63
2022-10-21T20:41:38.654Z,20.56
2022-10-21T20:44:08.650Z,20.54
2022-10-21T20:46:38.537Z,20.47
2022-10-21T20:49:08.509Z,20.41
2022-10-21T20:51:38.430Z,20.35
2022-10-21T20:54:08.694Z,20.31
2022-10-21T20:56:38.860Z,20.27
2022-10-21T20:59:07.966Z,20.25
2022-10-21T21:01:41.924Z,20.20
2022-10-21T21:04:12.616Z,20.09
2022-10-21T21:06:42.642Z,20.10
2022-10-21T21:14:32.433Z,19.95
2022-10-21T21:17:01.866Z,19.94
2022-10-21T21:19:29.923Z,19.87
2022-10-21T21:21:57.971Z,19.72
2022-10-21T21:24:26.049Z,19.76
2022-10-21T21:26:54.047Z,19.75
2022-10-21T21:29:22.046Z,19.73
2022-10-21T21:31:50.113Z,19.70
2022-10-21T21:34:19.594Z,19.67
2022-10-21T21:36:47.587Z,19.60
2022-10-21T21:41:48.534Z,19.58
2022-10-21T21:44:16.586Z,19.55
2022-10-21T21:46:44.622Z,19.54
2022-10-21T21:49:12.638Z,19.50
2022-10-21T21:51:42.009Z,19.47
2022-10-21T21:54:10.046Z,19.45
2022-10-21T21:56:38.146Z,19.41
2022-10-21T21:59:06.175Z,19.40
2022-10-21T22:01:34.260Z,19.39
2022-10-21T22:04:02.359Z,19.36
2022-10-21T22:06:31.979Z,19.32
2022-10-21T22:09:02.964Z,19.30
2022-10-21T22:11:33.539Z,19.28
2022-10-21T22:14:01.754Z,19.27
2022-10-21T22:16:31.060Z,19.23
2022-10-21T22:19:01.289Z,19.23
2022-10-21T22:21:31.436Z,19.15
2022-10-21T22:24:00.985Z,19.13
2022-10-21T22:26:29.912Z,19.12
2022-10-21T22:28:58.117Z,19.15
2022-10-21T22:31:29.455Z,19.16
2022-10-21T22:34:00.527Z,19.17
2022-10-21T22:36:28.641Z,19.27
2022-10-21T22:38:56.639Z,19.30
2022-10-21T22:41:26.646Z,19.28
2022-10-21T22:43:54.744Z,19.32
2022-10-21T22:46:34.247Z,19.33
2022-10-21T22:49:03.604Z,19.37
2022-10-21T22:51:31.601Z,19.35
2022-10-21T22:53:59.787Z,19.35
2022-10-21T22:56:29.298Z,19.33
2022-10-21T22:58:57.879Z,19.31
2022-10-21T23:01:28.956Z,19.30
2022-10-21T23:03:57.981Z,19.30
2022-10-21T23:06:25.976Z,19.24
2022-10-21T23:08:54.043Z,19.25
2022-10-21T23:11:22.110Z,19.29
2022-10-21T23:14:02.493Z,19.27
2022-10-21T23:16:32.165Z,19.23
2022-10-21T23:19:00.593Z,19.25
2022-10-21T23:21:29.032Z,19.26
2022-10-21T23:23:57.504Z,19.24
2022-10-21T23:26:25.910Z,19.25
2022-10-21T23:28:55.457Z,19.24
2022-10-21T23:31:23.441Z,19.24
2022-10-21T23:33:51.471Z,19.21
2022-10-21T23:36:19.514Z,19.18
2022-10-21T23:38:47.545Z,19.21
2022-10-21T23:41:15.529Z,19.20
2022-10-21T23:43:43.538Z,19.15
2022-10-21T23:46:12.973Z,19.17
2022-10-21T23:48:41.115Z,19.17
2022-10-21T23:51:09.268Z,19.20
2022-10-21T23:53:37.342Z,19.17
2022-10-21T23:56:05.967Z,19.20
2022-10-21T23:58:33.981Z,19.21
